sensor_id;sensor_type;location;lat;lon;timestamp;temperature;humidity
6443;DHT22;3254;47.372;8.512;2022-09-01T00:01:51;15.20;99.90
6443;DHT22;3254;47.372;8.512;2022-09-01T00:04:21;15.20;99.90
6443;DHT22;3254;47.372;8.512;2022-09-01T00:06:48;15.20;99.90
6443;DHT22;3254;47.372;8.512;2022-09-01T00:09:16;15.20;99.90
6443;DHT22;3254;47.372;8.512;2022-09-01T00:11:45;15.10;99.90
6443;DHT22;3254;47.372;8.512;2022-09-01T00:14:12;15.10;99.90
6443;DHT22;3254;47.372;8.512;2022-09-01T00:16:37;15.10;99.90
6443;DHT22;3254;47.372;8.512;2022-09-01T00:19:04;15.00;99.90
6443;DHT22;3254;47.372;8.512;2022-09-01T00:21:32;14.90;99.90
6443;DHT22;3254;47.372;8.512;2022-09-01T00:23:59;14.90;99.90
6443;DHT22;3254;47.372;8.512;2022-09-01T00:26:25;14.90;99.90
6443;DHT22;3254;47.372;8.512;2022-09-01T00:28:51;14.80;99.90
6443;DHT22;3254;47.372;8.512;2022-09-01T00:31:17;14.80;99.90
6443;DHT22;3254;47.372;8.512;2022-09-01T00:33:44;14.70;99.90
6443;DHT22;3254;47.372;8.512;2022-09-01T00:36:10;14.60;99.90
6443;DHT22;3254;47.372;8.512;2022-09-01T00:38:36;14.60;99.90
6443;DHT22;3254;47.372;8.512;2022-09-01T00:41:02;14.50;99.90
6443;DHT22;3254;47.372;8.512;2022-09-01T00:43:48;14.50;99.90
6443;DHT22;3254;47.372;8.512;2022-09-01T00:46:31;14.40;99.90
6443;DHT22;3254;47.372;8.512;2022-09-01T00:49:05;14.40;99.90
6443;DHT22;3254;47.372;8.512;2022-09-01T00:51:33;14.30;99.90
6443;DHT22;3254;47.372;8.512;2022-09-01T00:54:00;14.40;99.90
6443;DHT22;3254;47.372;8.512;2022-09-01T00:56:26;14.40;99.90
6443;DHT22;3254;47.372;8.512;2022-09-01T00:58:53;14.40;99.90
6443;DHT22;3254;47.372;8.512;2022-09-01T01:01:19;14.30;99.90
6443;DHT22;3254;47.372;8.512;2022-09-01T01:03:45;14.10;99.90
6443;DHT22;3254;47.372;8.512;2022-09-01T01:06:12;14.00;99.90
6443;DHT22;3254;47.372;8.512;2022-09-01T01:08:41;14.10;99.90
6443;DHT22;3254;47.372;8.512;2022-09-01T01:11:14;14.00;99.90
6443;DHT22;3254;47.372;8.512;2022-09-01T01:13:53;14.20;99.90
6443;DHT22;3254;47.372;8.512;2022-09-01T01:16:20;14.30;99.90
6443;DHT22;3254;47.372;8.512;2022-09-01T01:18:46;14.30;99.90
6443;DHT22;3254;47.372;8.512;2022-09-01T01:21:31;14.30;99.90
6443;DHT22;3254;47.372;8.512;2022-09-01T01:24:38;14.30;99.90
6443;DHT22;3254;47.372;8.512;2022-09-01T01:27:04;14.30;99.90
6443;DHT22;3254;47.372;8.512;2022-09-01T01:29:33;14.10;99.90
6443;DHT22;3254;47.372;8.512;2022-09-01T01:32:01;14.20;99.90
6443;DHT22;3254;47.372;8.512;2022-09-01T01:34:29;14.20;99.90
6443;DHT22;3254;47.372;8.512;2022-09-01T01:36:56;14.10;99.90
6443;DHT22;3254;47.372;8.512;2022-09-01T01:39:24;14.10;99.90
6443;DHT22;3254;47.372;8.512;2022-09-01T01:41:53;14.10;99.90
6443;DHT22;3254;47.372;8.512;2022-09-01T01:44:22;14.10;99.90
6443;DHT22;3254;47.372;8.512;2022-09-01T01:46:51;14.00;99.90
6443;DHT22;3254;47.372;8.512;2022-09-01T01:49:21;14.00;99.90
6443;DHT22;3254;47.372;8.512;2022-09-01T01:51:48;14.10;99.90
6443;DHT22;3254;47.372;8.512;2022-09-01T01:54:15;14.20;99.90
6443;DHT22;3254;47.372;8.512;2022-09-01T01:56:44;14.20;99.90
6443;DHT22;3254;47.372;8.512;2022-09-01T01:59:09;14.20;99.90
6443;DHT22;3254;47.372;8.512;2022-09-01T02:01:39;14.20;99.90
6443;DHT22;3254;47.372;8.512;2022-09-01T02:04:08;14.10;99.90
6443;DHT22;3254;47.372;8.512;2022-09-01T02:06:36;14.00;99.90
6443;DHT22;3254;47.372;8.512;2022-09-01T02:09:05;13.90;99.90
6443;DHT22;3254;47.372;8.512;2022-09-01T02:11:32;13.90;99.90
6443;DHT22;3254;47.372;8.512;2022-09-01T02:14:04;14.00;99.90
6443;DHT22;3254;47.372;8.512;2022-09-01T02:16:32;13.80;99.90
6443;DHT22;3254;47.372;8.512;2022-09-01T02:18:59;13.70;99.90
6443;DHT22;3254;47.372;8.512;2022-09-01T02:21:26;13.80;99.90
6443;DHT22;3254;47.372;8.512;2022-09-01T02:23:55;13.70;99.90
6443;DHT22;3254;47.372;8.512;2022-09-01T02:26:37;13.70;99.90
6443;DHT22;3254;47.372;8.512;2022-09-01T02:29:07;13.70;99.90
6443;DHT22;3254;47.372;8.512;2022-09-01T02:31:35;13.70;99.90
6443;DHT22;3254;47.372;8.512;2022-09-01T02:34:04;13.80;99.90
6443;DHT22;3254;47.372;8.512;2022-09-01T02:36:30;13.80;99.90
6443;DHT22;3254;47.372;8.512;2022-09-01T02:38:59;13.90;99.90
6443;DHT22;3254;47.372;8.512;2022-09-01T02:41:25;13.90;99.90
6443;DHT22;3254;47.372;8.512;2022-09-01T02:43:53;13.90;99.90
6443;DHT22;3254;47.372;8.512;2022-09-01T02:46:19;13.90;99.90
6443;DHT22;3254;47.372;8.512;2022-09-01T02:48:47;13.70;99.90
6443;DHT22;3254;47.372;8.512;2022-09-01T02:51:17;13.60;99.90
6443;DHT22;3254;47.372;8.512;2022-09-01T02:53:45;13.60;99.90
6443;DHT22;3254;47.372;8.512;2022-09-01T02:56:16;13.60;99.90
6443;DHT22;3254;47.372;8.512;2022-09-01T02:58:45;13.70;99.90
6443;DHT22;3254;47.372;8.512;2022-09-01T03:01:19;13.80;99.90
6443;DHT22;3254;47.372;8.512;2022-09-01T03:03:50;13.60;99.90
6443;DHT22;3254;47.372;8.512;2022-09-01T03:06:17;13.60;99.90
6443;DHT22;3254;47.372;8.512;2022-09-01T03:08:44;13.70;99.90
6443;DHT22;3254;47.372;8.512;2022-09-01T03:11:10;13.80;99.90
6443;DHT22;3254;47.372;8.512;2022-09-01T03:13:38;13.80;99.90
6443;DHT22;3254;47.372;8.512;2022-09-01T03:16:05;13.90;99.90
6443;DHT22;3254;47.372;8.512;2022-09-01T03:18:32;13.90;99.90
6443;DHT22;3254;47.372;8.512;2022-09-01T03:20:58;13.90;99.90
6443;DHT22;3254;47.372;8.512;2022-09-01T03:23:28;14.00;99.90
6443;DHT22;3254;47.372;8.512;2022-09-01T03:25:54;14.00;99.90
6443;DHT22;3254;47.372;8.512;2022-09-01T03:28:20;14.00;99.90
6443;DHT22;3254;47.372;8.512;2022-09-01T03:30:48;14.10;99.90
6443;DHT22;3254;47.372;8.512;2022-09-01T03:33:15;14.10;99.90
6443;DHT22;3254;47.372;8.512;2022-09-01T03:35:42;14.10;99.90
6443;DHT22;3254;47.372;8.512;2022-09-01T03:38:08;14.20;99.90
6443;DHT22;3254;47.372;8.512;2022-09-01T03:40:40;14.20;99.90
6443;DHT22;3254;47.372;8.512;2022-09-01T03:43:08;14.20;99.90
6443;DHT22;3254;47.372;8.512;2022-09-01T03:45:39;14.30;99.90
6443;DHT22;3254;47.372;8.512;2022-09-01T03:48:06;14.30;99.90
6443;DHT22;3254;47.372;8.512;2022-09-01T03:50:38;14.30;99.90
6443;DHT22;3254;47.372;8.512;2022-09-01T03:53:06;14.40;99.90
6443;DHT22;3254;47.372;8.512;2022-09-01T03:55:33;14.50;99.90
6443;DHT22;3254;47.372;8.512;2022-09-01T03:58:03;14.50;99.90
6443;DHT22;3254;47.372;8.512;2022-09-01T04:00:33;14.60;99.90
6443;DHT22;3254;47.372;8.512;2022-09-01T04:03:02;14.60;99.90
6443;DHT22;3254;47.372;8.512;2022-09-01T04:05:30;14.60;99.90
6443;DHT22;3254;47.372;8.512;2022-09-01T04:08:01;14.60;99.90
6443;DHT22;3254;47.372;8.512;2022-09-01T04:10:29;14.60;99.90
6443;DHT22;3254;47.372;8.512;2022-09-01T04:12:57;14.70;99.90
6443;DHT22;3254;47.372;8.512;2022-09-01T04:15:24;14.70;99.90
6443;DHT22;3254;47.372;8.512;2022-09-01T04:17:51;14.70;99.90
6443;DHT22;3254;47.372;8.512;2022-09-01T04:20:37;14.60;99.90
6443;DHT22;3254;47.372;8.512;2022-09-01T04:23:21;14.70;99.90
6443;DHT22;3254;47.372;8.512;2022-09-01T04:26:11;14.80;98.70
6443;DHT22;3254;47.372;8.512;2022-09-01T04:28:42;14.80;96.60
6443;DHT22;3254;47.372;8.512;2022-09-01T04:31:12;14.90;95.40
6443;DHT22;3254;47.372;8.512;2022-09-01T04:33:45;14.90;95.20
6443;DHT22;3254;47.372;8.512;2022-09-01T04:36:18;14.90;93.50
6443;DHT22;3254;47.372;8.512;2022-09-01T04:38:45;14.90;93.80
6443;DHT22;3254;47.372;8.512;2022-09-01T04:41:12;14.80;93.70
6443;DHT22;3254;47.372;8.512;2022-09-01T04:43:46;14.90;94.00
6443;DHT22;3254;47.372;8.512;2022-09-01T04:46:15;14.90;93.10
6443;DHT22;3254;47.372;8.512;2022-09-01T04:48:42;15.00;92.40
6443;DHT22;3254;47.372;8.512;2022-09-01T04:51:12;15.00;91.70
6443;DHT22;3254;47.372;8.512;2022-09-01T04:53:40;15.00;90.80
6443;DHT22;3254;47.372;8.512;2022-09-01T04:56:08;15.10;90.60
6443;DHT22;3254;47.372;8.512;2022-09-01T04:58:34;15.10;88.70
6443;DHT22;3254;47.372;8.512;2022-09-01T05:01:01;15.10;88.70
6443;DHT22;3254;47.372;8.512;2022-09-01T05:03:32;15.10;87.40
6443;DHT22;3254;47.372;8.512;2022-09-01T05:05:58;15.20;86.30
6443;DHT22;3254;47.372;8.512;2022-09-01T05:08:25;15.20;85.40
6443;DHT22;3254;47.372;8.512;2022-09-01T05:10:52;15.30;84.60
6443;DHT22;3254;47.372;8.512;2022-09-01T05:13:20;15.40;83.70
6443;DHT22;3254;47.372;8.512;2022-09-01T05:16:03;15.40;82.50
6443;DHT22;3254;47.372;8.512;2022-09-01T05:18:30;15.40;81.40
6443;DHT22;3254;47.372;8.512;2022-09-01T05:20:56;15.40;80.20
6443;DHT22;3254;47.372;8.512;2022-09-01T05:23:22;15.50;78.10
6443;DHT22;3254;47.372;8.512;2022-09-01T05:25:50;15.50;77.10
6443;DHT22;3254;47.372;8.512;2022-09-01T05:28:19;15.60;75.60
6443;DHT22;3254;47.372;8.512;2022-09-01T05:30:49;15.60;75.10
6443;DHT22;3254;47.372;8.512;2022-09-01T05:33:19;15.60;73.50
6443;DHT22;3254;47.372;8.512;2022-09-01T05:35:54;15.70;74.30
6443;DHT22;3254;47.372;8.512;2022-09-01T05:38:21;15.80;71.40
6443;DHT22;3254;47.372;8.512;2022-09-01T05:40:58;15.80;69.40
6443;DHT22;3254;47.372;8.512;2022-09-01T05:43:29;15.90;66.80
6443;DHT22;3254;47.372;8.512;2022-09-01T05:45:59;16.00;65.40
6443;DHT22;3254;47.372;8.512;2022-09-01T05:48:29;16.00;65.20
6443;DHT22;3254;47.372;8.512;2022-09-01T05:50:57;16.00;63.20
6443;DHT22;3254;47.372;8.512;2022-09-01T05:53:26;16.00;63.70
6443;DHT22;3254;47.372;8.512;2022-09-01T05:55:55;16.10;63.40
6443;DHT22;3254;47.372;8.512;2022-09-01T05:58:24;16.10;62.50
6443;DHT22;3254;47.372;8.512;2022-09-01T06:00:51;16.20;59.00
6443;DHT22;3254;47.372;8.512;2022-09-01T06:03:19;16.20;57.80
6443;DHT22;3254;47.372;8.512;2022-09-01T06:05:46;16.10;57.00
6443;DHT22;3254;47.372;8.512;2022-09-01T06:08:18;16.20;55.90
6443;DHT22;3254;47.372;8.512;2022-09-01T06:10:44;16.30;56.70
6443;DHT22;3254;47.372;8.512;2022-09-01T06:13:10;16.40;53.20
6443;DHT22;3254;47.372;8.512;2022-09-01T06:15:40;16.40;53.20
6443;DHT22;3254;47.372;8.512;2022-09-01T06:18:07;16.50;50.10
6443;DHT22;3254;47.372;8.512;2022-09-01T06:20:33;16.60;48.80
6443;DHT22;3254;47.372;8.512;2022-09-01T06:23:02;16.70;46.90
6443;DHT22;3254;47.372;8.512;2022-09-01T06:25:28;16.80;44.60
6443;DHT22;3254;47.372;8.512;2022-09-01T06:27:55;16.90;42.80
6443;DHT22;3254;47.372;8.512;2022-09-01T06:30:21;17.00;39.70
6443;DHT22;3254;47.372;8.512;2022-09-01T06:32:52;17.10;37.50
6443;DHT22;3254;47.372;8.512;2022-09-01T06:35:19;17.20;34.90
6443;DHT22;3254;47.372;8.512;2022-09-01T06:37:45;17.30;33.60
6443;DHT22;3254;47.372;8.512;2022-09-01T06:40:14;17.30;33.10
6443;DHT22;3254;47.372;8.512;2022-09-01T06:42:47;17.40;31.00
6443;DHT22;3254;47.372;8.512;2022-09-01T06:45:15;17.60;30.00
6443;DHT22;3254;47.372;8.512;2022-09-01T06:47:42;17.70;28.90
6443;DHT22;3254;47.372;8.512;2022-09-01T06:50:10;17.70;27.70
6443;DHT22;3254;47.372;8.512;2022-09-01T06:52:37;17.70;27.20
6443;DHT22;3254;47.372;8.512;2022-09-01T06:55:05;17.70;26.80
6443;DHT22;3254;47.372;8.512;2022-09-01T06:57:31;17.60;25.20
6443;DHT22;3254;47.372;8.512;2022-09-01T06:59:56;17.50;25.90
6443;DHT22;3254;47.372;8.512;2022-09-01T07:02:22;17.50;26.00
6443;DHT22;3254;47.372;8.512;2022-09-01T07:04:49;17.60;25.10
6443;DHT22;3254;47.372;8.512;2022-09-01T07:07:16;17.70;24.30
6443;DHT22;3254;47.372;8.512;2022-09-01T07:09:41;17.70;23.30
6443;DHT22;3254;47.372;8.512;2022-09-01T07:12:07;17.90;22.20
6443;DHT22;3254;47.372;8.512;2022-09-01T07:14:34;18.00;21.00
6443;DHT22;3254;47.372;8.512;2022-09-01T07:17:00;18.10;19.60
6443;DHT22;3254;47.372;8.512;2022-09-01T07:19:25;18.10;19.30
6443;DHT22;3254;47.372;8.512;2022-09-01T07:21:51;18.20;19.30
6443;DHT22;3254;47.372;8.512;2022-09-01T07:24:18;18.40;18.10
6443;DHT22;3254;47.372;8.512;2022-09-01T07:26:45;18.60;16.40
6443;DHT22;3254;47.372;8.512;2022-09-01T07:29:14;18.60;14.60
6443;DHT22;3254;47.372;8.512;2022-09-01T07:31:42;18.50;14.30
6443;DHT22;3254;47.372;8.512;2022-09-01T07:34:10;18.60;14.40
6443;DHT22;3254;47.372;8.512;2022-09-01T07:36:41;18.60;14.10
6443;DHT22;3254;47.372;8.512;2022-09-01T07:39:07;18.60;11.50
6443;DHT22;3254;47.372;8.512;2022-09-01T07:41:33;18.50;12.00
6443;DHT22;3254;47.372;8.512;2022-09-01T07:44:00;18.40;13.00
6443;DHT22;3254;47.372;8.512;2022-09-01T07:46:28;18.40;12.50
6443;DHT22;3254;47.372;8.512;2022-09-01T07:48:56;18.30;13.10
6443;DHT22;3254;47.372;8.512;2022-09-01T07:51:24;18.30;13.50
6443;DHT22;3254;47.372;8.512;2022-09-01T07:53:51;18.40;12.30
6443;DHT22;3254;47.372;8.512;2022-09-01T07:56:19;18.50;11.60
6443;DHT22;3254;47.372;8.512;2022-09-01T07:58:46;18.60;11.30
6443;DHT22;3254;47.372;8.512;2022-09-01T08:01:17;18.60;10.30
6443;DHT22;3254;47.372;8.512;2022-09-01T08:03:45;18.70;9.80
6443;DHT22;3254;47.372;8.512;2022-09-01T08:06:13;18.90;7.60
6443;DHT22;3254;47.372;8.512;2022-09-01T08:08:40;19.10;5.40
6443;DHT22;3254;47.372;8.512;2022-09-01T08:11:07;19.10;4.70
6443;DHT22;3254;47.372;8.512;2022-09-01T08:13:35;19.20;4.00
6443;DHT22;3254;47.372;8.512;2022-09-01T08:16:06;19.20;3.50
6443;DHT22;3254;47.372;8.512;2022-09-01T08:18:32;19.10;2.30
6443;DHT22;3254;47.372;8.512;2022-09-01T08:20:58;19.10;3.40
6443;DHT22;3254;47.372;8.512;2022-09-01T08:23:23;19.20;3.90
6443;DHT22;3254;47.372;8.512;2022-09-01T08:25:52;19.30;3.30
6443;DHT22;3254;47.372;8.512;2022-09-01T08:28:18;19.20;2.40
6443;DHT22;3254;47.372;8.512;2022-09-01T08:30:45;19.20;2.30
6443;DHT22;3254;47.372;8.512;2022-09-01T08:33:13;19.30;1.50
6443;DHT22;3254;47.372;8.512;2022-09-01T08:35:41;19.40;1.00
6443;DHT22;3254;47.372;8.512;2022-09-01T08:38:07;19.50;1.00
6443;DHT22;3254;47.372;8.512;2022-09-01T08:40:33;19.70;1.00
6443;DHT22;3254;47.372;8.512;2022-09-01T08:43:12;19.80;1.00
6443;DHT22;3254;47.372;8.512;2022-09-01T08:45:49;19.80;1.00
6443;DHT22;3254;47.372;8.512;2022-09-01T08:48:36;19.80;1.00
6443;DHT22;3254;47.372;8.512;2022-09-01T08:51:17;19.80;1.00
6443;DHT22;3254;47.372;8.512;2022-09-01T08:54:14;19.50;1.00
6443;DHT22;3254;47.372;8.512;2022-09-01T08:56:41;19.40;1.00
6443;DHT22;3254;47.372;8.512;2022-09-01T08:59:09;19.30;1.00
6443;DHT22;3254;47.372;8.512;2022-09-01T09:09:58;20.40;1.00
6443;DHT22;3254;47.372;8.512;2022-09-01T09:18:02;22.00;1.00
6443;DHT22;3254;47.372;8.512;2022-09-01T09:20:31;22.20;1.00
6443;DHT22;3254;47.372;8.512;2022-09-01T09:23:10;22.40;1.00
6443;DHT22;3254;47.372;8.512;2022-09-01T09:25:36;22.80;1.00
6443;DHT22;3254;47.372;8.512;2022-09-01T09:28:01;22.50;1.00
6443;DHT22;3254;47.372;8.512;2022-09-01T09:30:28;21.80;1.00
6443;DHT22;3254;47.372;8.512;2022-09-01T09:32:59;21.70;1.00
6443;DHT22;3254;47.372;8.512;2022-09-01T09:35:38;21.70;1.00
6443;DHT22;3254;47.372;8.512;2022-09-01T09:46:42;22.50;1.00
6443;DHT22;3254;47.372;8.512;2022-09-01T09:49:15;23.00;1.00
6443;DHT22;3254;47.372;8.512;2022-09-01T09:51:49;22.80;1.00
6443;DHT22;3254;47.372;8.512;2022-09-01T09:56:44;22.20;1.00
6443;DHT22;3254;47.372;8.512;2022-09-01T09:59:27;22.00;1.00
6443;DHT22;3254;47.372;8.512;2022-09-01T10:01:58;22.20;1.00
6443;DHT22;3254;47.372;8.512;2022-09-01T10:04:36;22.30;1.00
6443;DHT22;3254;47.372;8.512;2022-09-01T10:09:58;22.30;1.00
6443;DHT22;3254;47.372;8.512;2022-09-01T10:12:25;22.30;1.00
6443;DHT22;3254;47.372;8.512;2022-09-01T10:15:03;22.90;1.00
6443;DHT22;3254;47.372;8.512;2022-09-01T10:17:34;22.80;1.00
6443;DHT22;3254;47.372;8.512;2022-09-01T10:20:14;22.80;1.00
6443;DHT22;3254;47.372;8.512;2022-09-01T10:22:42;23.20;1.00
6443;DHT22;3254;47.372;8.512;2022-09-01T10:25:22;23.50;1.00
6443;DHT22;3254;47.372;8.512;2022-09-01T10:28:11;24.30;1.00
6443;DHT22;3254;47.372;8.512;2022-09-01T10:30:43;24.50;1.00
6443;DHT22;3254;47.372;8.512;2022-09-01T10:33:13;24.50;1.00
6443;DHT22;3254;47.372;8.512;2022-09-01T10:35:42;24.60;1.00
6443;DHT22;3254;47.372;8.512;2022-09-01T10:38:24;24.60;1.00
6443;DHT22;3254;47.372;8.512;2022-09-01T10:40:52;25.00;1.00
6443;DHT22;3254;47.372;8.512;2022-09-01T10:43:39;25.30;1.00
6443;DHT22;3254;47.372;8.512;2022-09-01T10:48:46;24.20;1.00
6443;DHT22;3254;47.372;8.512;2022-09-01T10:56:16;24.30;1.00
6443;DHT22;3254;47.372;8.512;2022-09-01T11:04:13;23.90;1.00
6443;DHT22;3254;47.372;8.512;2022-09-01T11:06:59;24.70;1.00
6443;DHT22;3254;47.372;8.512;2022-09-01T11:09:41;25.40;1.00
6443;DHT22;3254;47.372;8.512;2022-09-01T11:12:42;25.40;1.00
6443;DHT22;3254;47.372;8.512;2022-09-01T11:25:45;24.80;1.00
6443;DHT22;3254;47.372;8.512;2022-09-01T11:30:48;24.70;1.00
6443;DHT22;3254;47.372;8.512;2022-09-01T11:36:33;25.30;1.00
6443;DHT22;3254;47.372;8.512;2022-09-01T11:44:41;27.30;1.00
6443;DHT22;3254;47.372;8.512;2022-09-01T11:47:38;27.50;1.00
6443;DHT22;3254;47.372;8.512;2022-09-01T11:50:07;27.00;1.00
6443;DHT22;3254;47.372;8.512;2022-09-01T11:52:42;27.00;1.00
6443;DHT22;3254;47.372;8.512;2022-09-01T11:57:55;25.90;1.00
6443;DHT22;3254;47.372;8.512;2022-09-01T12:00:33;25.40;1.00
6443;DHT22;3254;47.372;8.512;2022-09-01T12:03:19;25.00;1.00
6443;DHT22;3254;47.372;8.512;2022-09-01T12:05:51;24.90;1.00
6443;DHT22;3254;47.372;8.512;2022-09-01T12:08:19;24.80;1.00
6443;DHT22;3254;47.372;8.512;2022-09-01T12:10:46;25.20;1.00
6443;DHT22;3254;47.372;8.512;2022-09-01T12:13:22;26.30;1.00
6443;DHT22;3254;47.372;8.512;2022-09-01T12:15:56;27.30;1.00
6443;DHT22;3254;47.372;8.512;2022-09-01T12:18:25;29.10;1.00
6443;DHT22;3254;47.372;8.512;2022-09-01T12:20:53;30.60;1.00
6443;DHT22;3254;47.372;8.512;2022-09-01T12:26:08;31.00;1.00
6443;DHT22;3254;47.372;8.512;2022-09-01T12:28:35;31.70;1.00
6443;DHT22;3254;47.372;8.512;2022-09-01T12:31:05;31.90;1.00
6443;DHT22;3254;47.372;8.512;2022-09-01T12:33:32;31.70;1.00
6443;DHT22;3254;47.372;8.512;2022-09-01T12:38:52;33.00;1.00
6443;DHT22;3254;47.372;8.512;2022-09-01T12:41:38;33.00;1.00
6443;DHT22;3254;47.372;8.512;2022-09-01T12:44:27;33.10;1.00
6443;DHT22;3254;47.372;8.512;2022-09-01T12:47:07;33.30;1.00
6443;DHT22;3254;47.372;8.512;2022-09-01T12:49:42;33.70;1.00
6443;DHT22;3254;47.372;8.512;2022-09-01T12:54:48;33.50;1.00
6443;DHT22;3254;47.372;8.512;2022-09-01T12:57:29;32.50;1.00
6443;DHT22;3254;47.372;8.512;2022-09-01T13:00:15;31.50;1.00
6443;DHT22;3254;47.372;8.512;2022-09-01T13:02:50;32.50;1.00
6443;DHT22;3254;47.372;8.512;2022-09-01T13:05:27;32.40;1.00
6443;DHT22;3254;47.372;8.512;2022-09-01T13:08:01;32.90;1.00
6443;DHT22;3254;47.372;8.512;2022-09-01T13:10:32;33.00;1.00
6443;DHT22;3254;47.372;8.512;2022-09-01T13:12:58;32.10;1.00
6443;DHT22;3254;47.372;8.512;2022-09-01T13:15:26;31.70;1.00
6443;DHT22;3254;47.372;8.512;2022-09-01T13:17:52;31.60;1.00
6443;DHT22;3254;47.372;8.512;2022-09-01T13:20:18;31.00;1.00
6443;DHT22;3254;47.372;8.512;2022-09-01T13:22:44;30.70;1.00
6443;DHT22;3254;47.372;8.512;2022-09-01T13:25:16;30.40;1.00
6443;DHT22;3254;47.372;8.512;2022-09-01T13:27:44;29.70;1.00
6443;DHT22;3254;47.372;8.512;2022-09-01T13:30:13;29.20;1.00
6443;DHT22;3254;47.372;8.512;2022-09-01T13:32:41;29.30;1.00
6443;DHT22;3254;47.372;8.512;2022-09-01T13:35:07;30.20;1.00
6443;DHT22;3254;47.372;8.512;2022-09-01T13:37:33;30.30;1.00
6443;DHT22;3254;47.372;8.512;2022-09-01T13:40:00;29.50;1.00
6443;DHT22;3254;47.372;8.512;2022-09-01T13:42:25;29.50;1.00
6443;DHT22;3254;47.372;8.512;2022-09-01T13:44:51;30.00;1.00
6443;DHT22;3254;47.372;8.512;2022-09-01T13:47:17;30.90;1.00
6443;DHT22;3254;47.372;8.512;2022-09-01T13:49:42;31.30;1.00
6443;DHT22;3254;47.372;8.512;2022-09-01T13:52:09;32.60;1.00
6443;DHT22;3254;47.372;8.512;2022-09-01T13:54:34;33.90;1.00
6443;DHT22;3254;47.372;8.512;2022-09-01T13:57:00;33.00;1.00
6443;DHT22;3254;47.372;8.512;2022-09-01T13:59:26;32.50;1.00
6443;DHT22;3254;47.372;8.512;2022-09-01T14:01:51;31.60;1.00
6443;DHT22;3254;47.372;8.512;2022-09-01T14:04:17;30.30;1.00
6443;DHT22;3254;47.372;8.512;2022-09-01T14:06:44;28.80;1.00
6443;DHT22;3254;47.372;8.512;2022-09-01T14:09:11;27.80;1.00
6443;DHT22;3254;47.372;8.512;2022-09-01T14:11:37;27.30;1.00
6443;DHT22;3254;47.372;8.512;2022-09-01T14:14:03;26.90;1.00
6443;DHT22;3254;47.372;8.512;2022-09-01T14:16:29;26.70;1.00
6443;DHT22;3254;47.372;8.512;2022-09-01T14:18:55;26.80;1.00
6443;DHT22;3254;47.372;8.512;2022-09-01T14:21:21;27.10;1.00
6443;DHT22;3254;47.372;8.512;2022-09-01T14:23:46;28.30;1.00
6443;DHT22;3254;47.372;8.512;2022-09-01T14:26:14;28.60;1.00
6443;DHT22;3254;47.372;8.512;2022-09-01T14:28:41;28.70;1.00
6443;DHT22;3254;47.372;8.512;2022-09-01T14:31:16;29.70;1.00
6443;DHT22;3254;47.372;8.512;2022-09-01T14:33:44;31.40;1.00
6443;DHT22;3254;47.372;8.512;2022-09-01T14:36:17;32.70;1.00
6443;DHT22;3254;47.372;8.512;2022-09-01T14:38:43;33.50;1.00
6443;DHT22;3254;47.372;8.512;2022-09-01T14:41:12;31.90;1.00
6443;DHT22;3254;47.372;8.512;2022-09-01T14:43:38;30.80;1.00
6443;DHT22;3254;47.372;8.512;2022-09-01T14:46:08;29.80;1.00
6443;DHT22;3254;47.372;8.512;2022-09-01T14:48:36;29.00;1.00
6443;DHT22;3254;47.372;8.512;2022-09-01T14:51:03;29.50;1.00
6443;DHT22;3254;47.372;8.512;2022-09-01T14:53:29;31.00;1.00
6443;DHT22;3254;47.372;8.512;2022-09-01T14:55:59;31.50;1.00
6443;DHT22;3254;47.372;8.512;2022-09-01T14:58:27;31.50;1.00
6443;DHT22;3254;47.372;8.512;2022-09-01T15:00:54;32.00;1.00
6443;DHT22;3254;47.372;8.512;2022-09-01T15:03:21;33.20;1.00
6443;DHT22;3254;47.372;8.512;2022-09-01T15:05:47;33.50;1.00
6443;DHT22;3254;47.372;8.512;2022-09-01T15:08:13;34.40;1.00
6443;DHT22;3254;47.372;8.512;2022-09-01T15:10:39;34.80;1.00
6443;DHT22;3254;47.372;8.512;2022-09-01T15:13:05;34.80;1.00
6443;DHT22;3254;47.372;8.512;2022-09-01T15:15:31;35.30;1.00
6443;DHT22;3254;47.372;8.512;2022-09-01T15:17:59;34.50;1.00
6443;DHT22;3254;47.372;8.512;2022-09-01T15:20:25;34.90;1.00
6443;DHT22;3254;47.372;8.512;2022-09-01T15:23:17;34.00;1.00
6443;DHT22;3254;47.372;8.512;2022-09-01T15:25:44;33.30;1.00
6443;DHT22;3254;47.372;8.512;2022-09-01T15:28:10;31.90;1.00
6443;DHT22;3254;47.372;8.512;2022-09-01T15:30:37;30.80;1.00
6443;DHT22;3254;47.372;8.512;2022-09-01T15:33:04;29.80;1.00
6443;DHT22;3254;47.372;8.512;2022-09-01T15:35:31;29.70;1.00
6443;DHT22;3254;47.372;8.512;2022-09-01T15:37:58;30.40;1.00
6443;DHT22;3254;47.372;8.512;2022-09-01T15:40:25;31.20;1.00
6443;DHT22;3254;47.372;8.512;2022-09-01T15:42:51;32.30;1.00
6443;DHT22;3254;47.372;8.512;2022-09-01T15:45:18;32.40;1.00
6443;DHT22;3254;47.372;8.512;2022-09-01T15:47:45;32.50;1.00
6443;DHT22;3254;47.372;8.512;2022-09-01T15:50:14;33.10;1.00
6443;DHT22;3254;47.372;8.512;2022-09-01T15:55:15;33.40;1.00
6443;DHT22;3254;47.372;8.512;2022-09-01T15:57:41;33.40;1.00
6443;DHT22;3254;47.372;8.512;2022-09-01T16:00:07;32.50;1.00
6443;DHT22;3254;47.372;8.512;2022-09-01T16:02:33;31.40;1.00
6443;DHT22;3254;47.372;8.512;2022-09-01T16:04:59;30.20;1.00
6443;DHT22;3254;47.372;8.512;2022-09-01T16:07:24;30.40;1.00
6443;DHT22;3254;47.372;8.512;2022-09-01T16:09:50;31.00;1.00
6443;DHT22;3254;47.372;8.512;2022-09-01T16:12:21;31.60;1.00
6443;DHT22;3254;47.372;8.512;2022-09-01T16:14:47;32.30;1.00
6443;DHT22;3254;47.372;8.512;2022-09-01T16:20:35;34.30;1.00
6443;DHT22;3254;47.372;8.512;2022-09-01T16:23:17;34.00;1.00
6443;DHT22;3254;47.372;8.512;2022-09-01T16:25:43;34.00;1.00
6443;DHT22;3254;47.372;8.512;2022-09-01T16:28:32;33.70;1.00
6443;DHT22;3254;47.372;8.512;2022-09-01T16:31:22;33.20;1.00
6443;DHT22;3254;47.372;8.512;2022-09-01T16:33:52;32.90;1.00
6443;DHT22;3254;47.372;8.512;2022-09-01T16:39:42;33.00;1.00
6443;DHT22;3254;47.372;8.512;2022-09-01T16:50:39;32.60;1.00
6443;DHT22;3254;47.372;8.512;2022-09-01T17:06:29;32.30;1.00
6443;DHT22;3254;47.372;8.512;2022-09-01T17:09:38;32.10;1.00
6443;DHT22;3254;47.372;8.512;2022-09-01T17:14:55;31.30;1.00
6443;DHT22;3254;47.372;8.512;2022-09-01T17:17:29;30.90;1.00
6443;DHT22;3254;47.372;8.512;2022-09-01T17:19:56;31.10;1.00
6443;DHT22;3254;47.372;8.512;2022-09-01T17:22:23;30.40;1.00
6443;DHT22;3254;47.372;8.512;2022-09-01T17:24:57;29.90;1.00
6443;DHT22;3254;47.372;8.512;2022-09-01T17:29:57;28.90;1.00
6443;DHT22;3254;47.372;8.512;2022-09-01T17:32:33;28.40;1.00
6443;DHT22;3254;47.372;8.512;2022-09-01T17:37:40;28.50;1.00
6443;DHT22;3254;47.372;8.512;2022-09-01T17:40:11;28.60;1.00
6443;DHT22;3254;47.372;8.512;2022-09-01T17:43:04;28.10;1.00
6443;DHT22;3254;47.372;8.512;2022-09-01T17:48:17;26.60;1.00
6443;DHT22;3254;47.372;8.512;2022-09-01T17:56:12;24.00;1.00
6443;DHT22;3254;47.372;8.512;2022-09-01T17:58:50;23.40;1.00
6443;DHT22;3254;47.372;8.512;2022-09-01T18:04:38;22.50;1.00
6443;DHT22;3254;47.372;8.512;2022-09-01T18:07:13;22.10;1.00
6443;DHT22;3254;47.372;8.512;2022-09-01T18:09:55;21.90;1.00
6443;DHT22;3254;47.372;8.512;2022-09-01T18:12:28;21.70;1.00
6443;DHT22;3254;47.372;8.512;2022-09-01T18:17:29;21.30;1.00
6443;DHT22;3254;47.372;8.512;2022-09-01T18:20:18;21.10;1.00
6443;DHT22;3254;47.372;8.512;2022-09-01T18:22:46;20.90;1.00
6443;DHT22;3254;47.372;8.512;2022-09-01T18:25:19;20.70;1.00
6443;DHT22;3254;47.372;8.512;2022-09-01T18:27:45;20.60;1.00
6443;DHT22;3254;47.372;8.512;2022-09-01T18:30:16;20.50;1.00
6443;DHT22;3254;47.372;8.512;2022-09-01T18:40:32;20.10;1.00
6443;DHT22;3254;47.372;8.512;2022-09-01T18:45:55;19.90;1.00